Time;durP1;ratioP1;P1;durP2;ratioP2;P2;SDS_P1;SDS_P2;PMS_P1;PMS_P2;Temp;Humidity;BMP_temperature;BMP_pressure;BME280_temperature;BME280_humidity;BME280_pressure;Samples;Min_cycle;Max_cycle;Signal;HPM_P1;HPM_P2
2023/12/22 00:02:14;;;;;;;14.40;2.23;;;4.70;99.90;;;;;;7767681;28;20207;-83
2023/12/22 00:06:00;;;;;;;8.57;1.87;;;4.70;99.90;;;;;;7775964;28;20194;-84
2023/12/22 00:09:46;;;;;;;8.10;2.23;;;4.70;99.90;;;;;;7793265;28;20187;-84
2023/12/22 00:13:33;;;;;;;10.30;1.77;;;4.60;99.90;;;;;;7773269;28;20215;-84
2023/12/22 00:17:18;;;;;;;14.40;2.23;;;4.70;99.90;;;;;;7776130;28;20171;-84
2023/12/22 00:21:04;;;;;;;12.30;2.03;;;4.70;99.90;;;;;;7748957;28;20200;-84
2023/12/22 00:24:50;;;;;;;12.63;2.10;;;4.70;99.90;;;;;;7790285;28;20210;-84
2023/12/22 00:28:35;;;;;;;18.07;2.40;;;4.70;99.90;;;;;;7792780;28;20176;-84
2023/12/22 00:32:21;;;;;;;20.70;2.50;;;4.70;99.90;;;;;;7791652;28;20222;-83
2023/12/22 00:36:08;;;;;;;12.00;2.30;;;4.70;99.90;;;;;;7761072;28;20279;-83
2023/12/22 00:39:53;;;;;;;16.73;1.90;;;4.60;99.90;;;;;;7771999;28;20206;-84
2023/12/22 00:43:39;;;;;;;19.13;2.70;;;4.60;99.90;;;;;;7788600;28;20287;-83
2023/12/22 00:47:24;;;;;;;8.57;2.00;;;4.60;99.90;;;;;;7774584;28;20642;-84
2023/12/22 00:51:10;;;;;;;13.30;2.33;;;4.60;99.90;;;;;;7791192;28;20660;-84
2023/12/22 00:54:56;;;;;;;14.60;2.57;;;4.60;99.90;;;;;;7766063;28;20270;-84
2023/12/22 00:58:42;;;;;;;16.60;2.33;;;4.50;99.90;;;;;;7768476;28;20182;-84
2023/12/22 01:02:27;;;;;;;10.50;2.17;;;4.50;99.90;;;;;;7791250;28;20215;-84
2023/12/22 01:06:14;;;;;;;17.13;2.23;;;4.50;99.90;;;;;;7773888;28;20179;-84
2023/12/22 01:10:01;;;;;;;10.47;1.97;;;4.50;99.90;;;;;;7754925;28;20234;-87
2023/12/22 01:13:47;;;;;;;14.20;2.67;;;4.50;99.90;;;;;;7766959;28;20721;-84
2023/12/22 01:17:32;;;;;;;11.40;2.30;;;4.60;99.90;;;;;;7786640;28;20830;-84
2023/12/22 01:21:18;;;;;;;15.63;2.37;;;4.50;99.90;;;;;;7754138;28;20742;-84
2023/12/22 01:25:05;;;;;;;16.00;2.83;;;4.60;99.90;;;;;;7756020;28;20334;-84
2023/12/22 01:28:50;;;;;;;13.07;2.20;;;4.50;99.90;;;;;;7771137;28;20179;-84
2023/12/22 01:32:36;;;;;;;19.27;2.90;;;4.50;99.90;;;;;;7788587;22;20250;-85
2023/12/22 01:36:22;;;;;;;11.87;2.40;;;4.50;99.90;;;;;;7772460;28;20190;-84
2023/12/22 01:40:08;;;;;;;12.63;1.80;;;4.60;99.90;;;;;;7767695;28;20183;-84
2023/12/22 01:43:54;;;;;;;20.30;1.97;;;4.50;99.90;;;;;;7777849;28;21084;-85
2023/12/22 01:47:40;;;;;;;9.57;2.03;;;4.50;99.90;;;;;;7775525;28;20541;-85
2023/12/22 01:51:25;;;;;;;15.00;2.57;;;4.50;99.90;;;;;;7800604;28;20186;-85
2023/12/22 01:55:13;;;;;;;10.03;2.27;;;4.40;99.90;;;;;;7789472;28;20202;-84
2023/12/22 01:59:01;;;;;;;19.07;2.33;;;4.40;99.90;;;;;;7795805;28;20187;-85
2023/12/22 02:02:47;;;;;;;18.37;2.80;;;4.40;99.90;;;;;;7772054;28;20806;-84
2023/12/22 02:06:35;;;;;;;9.50;2.37;;;4.20;99.90;;;;;;7773162;28;20640;-86
2023/12/22 02:10:21;;;;;;;11.67;2.00;;;4.20;99.90;;;;;;7773911;28;20641;-84
2023/12/22 02:14:07;;;;;;;13.23;2.20;;;4.10;99.90;;;;;;7788096;28;20198;-84
2023/12/22 02:18:02;;;;;;;14.23;2.63;;;4.10;99.90;;;;;;7804322;28;20209;-85
2023/12/22 02:22:08;;;;;;;10.83;2.23;;;4.00;99.90;;;;;;7789432;28;20592;-85
2023/12/22 02:26:09;;;;;;;12.83;2.60;;;4.00;99.90;;;;;;7778815;28;20183;-85
2023/12/22 02:30:03;;;;;;;18.60;2.83;;;4.00;99.90;;;;;;7774059;28;20633;-86
2023/12/22 02:33:52;;;;;;;22.73;3.30;;;3.90;99.90;;;;;;7773560;28;20302;-85
2023/12/22 02:37:39;;;;;;;11.60;2.00;;;4.00;99.90;;;;;;7802323;28;20191;-85
2023/12/22 02:41:25;;;;;;;22.33;3.03;;;4.00;99.90;;;;;;7785425;28;20183;-86
2023/12/22 02:45:16;;;;;;;14.97;2.57;;;4.00;99.90;;;;;;7785364;28;20306;-86
2023/12/22 02:49:01;;;;;;;17.33;2.67;;;4.00;99.90;;;;;;7777168;28;20274;-86
2023/12/22 02:52:47;;;;;;;18.00;3.47;;;4.00;99.90;;;;;;7775127;28;20665;-85
2023/12/22 02:56:32;;;;;;;20.63;2.80;;;4.00;99.90;;;;;;7780062;28;20180;-85
2023/12/22 03:00:18;;;;;;;21.40;3.10;;;4.00;99.90;;;;;;7809305;28;20240;-86
2023/12/22 03:04:04;;;;;;;10.73;2.87;;;4.00;99.90;;;;;;7796301;28;20215;-85
2023/12/22 03:07:49;;;;;;;13.67;3.00;;;4.00;99.90;;;;;;7778268;28;20188;-86
2023/12/22 03:11:37;;;;;;;20.20;3.17;;;3.90;99.90;;;;;;7779052;28;20265;-85
2023/12/22 03:15:23;;;;;;;21.37;2.83;;;4.00;99.90;;;;;;7777434;28;20203;-86
2023/12/22 03:19:08;;;;;;;20.67;3.13;;;4.00;99.90;;;;;;7795839;28;20192;-85
2023/12/22 03:22:54;;;;;;;19.57;3.30;;;4.00;99.90;;;;;;7793874;28;20298;-86
2023/12/22 03:26:39;;;;;;;23.97;3.00;;;4.00;99.90;;;;;;7776798;28;20195;-86
2023/12/22 03:30:25;;;;;;;20.47;2.63;;;4.00;99.90;;;;;;7777980;28;20234;-86
2023/12/22 03:34:11;;;;;;;22.30;4.83;;;4.00;99.90;;;;;;7777974;28;20226;-85
2023/12/22 03:37:57;;;;;;;17.60;3.13;;;4.00;99.90;;;;;;7778036;28;20218;-87
2023/12/22 03:41:42;;;;;;;19.57;3.13;;;4.00;99.90;;;;;;7779446;28;20187;-86
2023/12/22 03:45:28;;;;;;;17.10;3.20;;;4.00;99.90;;;;;;7778323;28;20222;-85
2023/12/22 03:49:14;;;;;;;15.53;2.50;;;4.00;99.90;;;;;;7777085;28;20221;-85
2023/12/22 03:52:59;;;;;;;16.77;2.73;;;4.00;99.90;;;;;;7789689;28;20203;-86
2023/12/22 03:56:45;;;;;;;22.17;3.27;;;3.90;99.90;;;;;;7808125;28;20225;-86
2023/12/22 04:00:31;;;;;;;17.23;3.73;;;4.10;99.90;;;;;;7808149;28;20268;-86
2023/12/22 04:04:16;;;;;;;17.07;3.03;;;4.00;99.90;;;;;;7805580;28;20297;-86
2023/12/22 04:08:02;;;;;;;18.33;2.20;;;4.00;99.90;;;;;;7781220;28;20203;-86
2023/12/22 04:11:48;;;;;;;16.70;2.17;;;4.00;99.90;;;;;;7801050;28;20182;-85
2023/12/22 04:15:33;;;;;;;16.33;2.50;;;4.00;99.90;;;;;;7806708;28;20257;-85
2023/12/22 04:19:19;;;;;;;10.47;2.00;;;4.00;99.90;;;;;;7806754;28;20179;-86
2023/12/22 04:23:05;;;;;;;12.33;2.20;;;4.10;99.90;;;;;;7808828;28;20211;-85
2023/12/22 04:26:50;;;;;;;14.33;3.13;;;4.00;99.90;;;;;;7783516;28;20171;-86
2023/12/22 04:30:36;;;;;;;15.70;2.53;;;4.20;99.90;;;;;;7778477;28;20172;-86
2023/12/22 04:34:22;;;;;;;11.00;2.93;;;4.10;99.90;;;;;;7779415;28;20235;-86
2023/12/22 04:38:08;;;;;;;10.50;2.10;;;4.10;99.90;;;;;;7804582;28;20171;-86
2023/12/22 04:41:59;;;;;;;14.40;1.90;;;4.10;99.90;;;;;;7817540;28;20246;-85
2023/12/22 04:45:44;;;;;;;13.57;3.50;;;4.10;99.90;;;;;;7792527;28;20191;-85
2023/12/22 04:49:30;;;;;;;16.80;2.07;;;4.00;99.90;;;;;;7775324;28;20190;-84
2023/12/22 04:53:15;;;;;;;16.23;1.70;;;4.00;99.90;;;;;;7769489;28;20203;-85
2023/12/22 04:57:01;;;;;;;10.40;1.80;;;3.90;99.90;;;;;;7773834;28;20186;-85
2023/12/22 05:00:47;;;;;;;8.90;1.53;;;3.90;99.90;;;;;;7774115;28;20187;-85
2023/12/22 05:04:33;;;;;;;12.57;2.20;;;3.90;99.90;;;;;;7773496;28;20219;-84
2023/12/22 05:08:19;;;;;;;6.07;1.50;;;3.90;99.90;;;;;;7791938;28;20183;-84
2023/12/22 05:12:05;;;;;;;8.80;1.80;;;3.90;99.90;;;;;;7774244;28;20211;-85
2023/12/22 05:15:50;;;;;;;15.57;1.33;;;3.90;99.90;;;;;;7781069;28;20274;-85
2023/12/22 05:19:36;;;;;;;8.27;1.50;;;3.90;99.90;;;;;;7773175;28;20209;-84
2023/12/22 05:23:21;;;;;;;6.27;1.43;;;3.90;99.90;;;;;;7774260;28;20257;-85
2023/12/22 05:27:08;;;;;;;6.60;1.47;;;3.90;99.90;;;;;;7777367;28;20211;-85
2023/12/22 05:30:53;;;;;;;6.17;1.57;;;3.80;99.90;;;;;;7795010;28;20186;-85
2023/12/22 05:34:39;;;;;;;5.27;1.00;;;3.80;99.90;;;;;;7803084;28;20310;-86
2023/12/22 05:38:24;;;;;;;8.27;1.13;;;3.80;99.90;;;;;;7776442;28;20179;-86
2023/12/22 05:42:10;;;;;;;2.90;0.83;;;3.70;99.90;;;;;;7781889;28;20186;-84
2023/12/22 05:45:56;;;;;;;10.97;1.33;;;3.70;99.90;;;;;;7774211;28;20669;-84
2023/12/22 05:49:43;;;;;;;4.07;1.23;;;3.70;99.90;;;;;;7777258;28;20890;-83
2023/12/22 05:53:29;;;;;;;5.53;1.37;;;3.60;99.90;;;;;;7792174;28;20293;-85
2023/12/22 05:57:15;;;;;;;3.80;0.97;;;3.60;99.90;;;;;;7773154;28;20190;-85
2023/12/22 06:01:00;;;;;;;6.57;0.93;;;3.40;99.90;;;;;;7773572;28;20206;-84
2023/12/22 06:04:46;;;;;;;5.80;1.20;;;3.50;99.90;;;;;;7775276;28;20940;-85
2023/12/22 06:08:31;;;;;;;7.87;1.37;;;3.50;99.90;;;;;;7773396;28;20699;-85
2023/12/22 06:12:17;;;;;;;6.03;1.20;;;3.50;99.90;;;;;;7764356;28;20219;-87
2023/12/22 06:16:03;;;;;;;7.27;1.27;;;3.50;99.90;;;;;;7758965;28;20187;-87
2023/12/22 06:19:49;;;;;;;3.50;1.30;;;3.50;99.90;;;;;;7793935;28;20191;-86
2023/12/22 06:23:34;;;;;;;8.97;1.43;;;3.40;99.90;;;;;;7773723;28;20211;-87
2023/12/22 06:27:20;;;;;;;10.00;1.47;;;3.50;99.90;;;;;;7773889;28;20186;-87
2023/12/22 06:31:07;;;;;;;10.00;1.67;;;3.50;99.90;;;;;;7781046;28;20530;-87
2023/12/22 06:34:52;;;;;;;4.80;1.23;;;3.50;99.90;;;;;;7790409;28;20222;-87
2023/12/22 06:38:38;;;;;;;11.40;1.37;;;3.50;99.90;;;;;;7811079;28;20221;-86
2023/12/22 06:42:23;;;;;;;7.97;1.17;;;3.40;99.90;;;;;;7810882;28;20210;-87
2023/12/22 06:46:16;;;;;;;8.00;1.30;;;3.40;99.90;;;;;;7794469;28;20176;-86
2023/12/22 06:50:01;;;;;;;8.80;1.57;;;3.40;99.90;;;;;;7780168;28;20653;-87
2023/12/22 06:53:50;;;;;;;8.43;1.07;;;3.40;99.90;;;;;;7779625;28;20602;-87
2023/12/22 06:57:36;;;;;;;8.47;1.43;;;3.40;99.90;;;;;;7779705;28;20189;-88
2023/12/22 07:01:29;;;;;;;8.83;1.70;;;3.40;99.90;;;;;;7779813;28;20187;-88
2023/12/22 07:05:21;;;;;;;6.23;1.60;;;3.30;99.90;;;;;;7779748;28;20281;-88
2023/12/22 07:09:19;;;;;;;5.73;1.10;;;3.40;99.90;;;;;;7779735;28;20226;-88
2023/12/22 07:13:04;;;;;;;7.50;1.40;;;3.40;99.90;;;;;;7780331;28;20214;-88
2023/12/22 07:16:50;;;;;;;8.20;1.23;;;3.30;99.90;;;;;;7779387;28;20188;-88
2023/12/22 07:20:35;;;;;;;6.63;1.27;;;3.20;99.90;;;;;;7779432;28;20179;-86
2023/12/22 07:24:21;;;;;;;10.53;1.03;;;3.30;99.90;;;;;;7778660;28;20309;-88
2023/12/22 07:28:07;;;;;;;6.07;1.40;;;3.30;99.90;;;;;;7778983;28;20184;-88
2023/12/22 07:31:52;;;;;;;5.10;1.17;;;3.30;99.90;;;;;;7778781;28;20176;-88
2023/12/22 07:35:38;;;;;;;10.33;2.37;;;3.20;99.90;;;;;;7778784;28;20266;-87
2023/12/22 07:39:24;;;;;;;10.40;1.90;;;3.30;99.90;;;;;;7776466;28;20184;-87
2023/12/22 07:43:09;;;;;;;7.37;1.20;;;3.50;99.90;;;;;;7776775;28;20215;-87
2023/12/22 07:46:59;;;;;;;10.37;1.43;;;3.60;99.90;;;;;;7775663;28;20191;-87
2023/12/22 07:50:45;;;;;;;9.40;3.17;;;3.70;99.90;;;;;;7776621;28;20179;-86
2023/12/22 07:54:31;;;;;;;5.60;1.50;;;3.90;99.90;;;;;;7766790;28;20548;-87
2023/12/22 07:58:17;;;;;;;6.03;1.73;;;3.90;99.90;;;;;;7768826;28;20275;-86
2023/12/22 08:02:03;;;;;;;7.57;1.73;;;3.90;99.90;;;;;;7782170;28;20188;-87
2023/12/22 08:05:48;;;;;;;4.57;1.30;;;3.80;99.90;;;;;;7773526;28;20267;-87
2023/12/22 08:09:34;;;;;;;9.57;1.40;;;3.90;99.90;;;;;;7776906;28;20172;-86
2023/12/22 08:13:20;;;;;;;6.13;1.47;;;3.80;99.90;;;;;;7780167;28;20560;-86
2023/12/22 08:17:05;;;;;;;4.90;2.10;;;3.60;99.90;;;;;;7773624;28;20547;-87
2023/12/22 08:20:51;;;;;;;10.10;3.43;;;3.40;99.90;;;;;;7772339;28;20185;-87
2023/12/22 08:24:37;;;;;;;3.03;1.30;;;3.30;99.90;;;;;;7775874;28;20583;-87
2023/12/22 08:28:22;;;;;;;4.83;1.50;;;3.00;99.90;;;;;;7775600;28;20262;-87
2023/12/22 08:32:08;;;;;;;8.50;3.70;;;2.70;99.90;;;;;;7775500;28;20591;-87
2023/12/22 08:35:53;;;;;;;10.57;4.70;;;2.80;99.90;;;;;;7775863;28;20657;-87
2023/12/22 08:39:39;;;;;;;4.17;2.20;;;2.80;99.90;;;;;;7778044;28;20210;-88
2023/12/22 08:43:25;;;;;;;3.40;1.77;;;2.90;99.90;;;;;;7776167;28;20211;-88
2023/12/22 08:47:11;;;;;;;3.07;1.40;;;3.00;99.90;;;;;;7769898;28;20197;-87
2023/12/22 08:50:57;;;;;;;2.10;1.17;;;3.10;99.90;;;;;;7762568;28;20187;-88
2023/12/22 08:54:43;;;;;;;1.40;0.80;;;3.30;99.90;;;;;;7776574;28;20215;-87
2023/12/22 08:58:29;;;;;;;1.07;0.77;;;3.20;99.90;;;;;;7774764;28;20183;-88
2023/12/22 09:02:15;;;;;;;1.83;0.80;;;3.20;99.90;;;;;;7774472;28;20207;-87
2023/12/22 09:06:01;;;;;;;2.40;1.37;;;3.10;99.90;;;;;;7774604;28;20179;-87
2023/12/22 09:09:46;;;;;;;3.20;1.50;;;3.00;99.90;;;;;;7807492;28;20186;-87
2023/12/22 09:13:33;;;;;;;3.20;1.30;;;3.00;99.90;;;;;;7814912;28;20291;-88
2023/12/22 09:17:18;;;;;;;6.30;1.70;;;2.90;99.90;;;;;;7780593;28;20175;-87
2023/12/22 09:21:04;;;;;;;3.97;1.50;;;3.00;99.90;;;;;;7776335;28;21522;-88
2023/12/22 09:24:51;;;;;;;5.20;1.50;;;2.90;99.90;;;;;;7774286;28;20215;-87
2023/12/22 09:28:36;;;;;;;5.83;2.17;;;2.80;99.90;;;;;;7774734;28;20245;-88
2023/12/22 09:32:22;;;;;;;8.17;1.67;;;2.80;99.90;;;;;;7771877;28;20309;-87
2023/12/22 09:36:08;;;;;;;8.07;3.33;;;2.80;99.90;;;;;;7788473;28;20225;-88
2023/12/22 09:39:54;;;;;;;7.30;4.03;;;2.90;99.90;;;;;;7774004;28;20183;-88
2023/12/22 09:43:40;;;;;;;8.07;1.60;;;3.00;99.90;;;;;;7780786;28;20213;-87
2023/12/22 09:47:29;;;;;;;6.10;1.43;;;3.00;99.90;;;;;;7803966;28;20190;-87
2023/12/22 09:51:17;;;;;;;3.00;0.93;;;3.00;99.90;;;;;;7782516;28;20218;-87
2023/12/22 09:55:04;;;;;;;4.20;0.90;;;3.00;99.90;;;;;;7778256;28;20260;-87
2023/12/22 09:58:53;;;;;;;3.43;1.50;;;3.00;99.90;;;;;;7768222;28;20346;-87
2023/12/22 10:02:39;;;;;;;5.70;1.37;;;3.00;99.90;;;;;;7775628;28;20215;-87
2023/12/22 10:06:25;;;;;;;4.60;1.20;;;2.90;99.90;;;;;;7779253;28;20179;-87
2023/12/22 10:10:12;;;;;;;5.33;2.63;;;3.10;99.90;;;;;;7779610;28;20218;-87
2023/12/22 10:14:00;;;;;;;7.63;2.07;;;3.10;99.90;;;;;;7778751;28;20234;-87
2023/12/22 10:17:46;;;;;;;14.47;4.93;;;3.20;99.90;;;;;;7779514;28;20191;-87
2023/12/22 10:21:31;;;;;;;4.87;2.17;;;3.20;99.90;;;;;;7780889;28;20776;-87
2023/12/22 10:25:21;;;;;;;3.60;1.23;;;3.20;99.90;;;;;;7780453;28;20612;-87
2023/12/22 10:29:08;;;;;;;7.23;1.20;;;3.30;99.90;;;;;;7779433;28;20180;-87
2023/12/22 10:32:54;;;;;;;8.17;1.67;;;3.20;99.90;;;;;;7778342;28;20254;-87
2023/12/22 10:36:40;;;;;;;6.70;1.53;;;3.10;99.90;;;;;;7778430;28;20190;-87
2023/12/22 10:40:26;;;;;;;6.43;2.03;;;3.20;99.90;;;;;;7779355;28;20849;-88
2023/12/22 10:44:12;;;;;;;69.63;6.03;;;3.20;99.90;;;;;;7778777;28;20302;-87
2023/12/22 10:47:58;;;;;;;7.17;2.73;;;3.30;99.90;;;;;;7779035;28;20194;-87
2023/12/22 10:51:44;;;;;;;6.43;1.77;;;3.20;99.90;;;;;;7779496;28;20202;-87
2023/12/22 10:55:29;;;;;;;8.57;3.33;;;3.20;99.90;;;;;;7778297;28;20571;-87
2023/12/22 10:59:21;;;;;;;20.03;5.70;;;3.20;99.90;;;;;;7778761;28;20606;-87
2023/12/22 11:03:10;;;;;;;12.30;4.40;;;3.30;99.90;;;;;;7778676;28;20246;-87
2023/12/22 11:06:58;;;;;;;11.33;2.87;;;3.40;99.90;;;;;;7776594;28;20630;-87
2023/12/22 11:10:48;;;;;;;10.97;2.40;;;3.40;99.90;;;;;;7775122;28;20262;-87
2023/12/22 11:14:35;;;;;;;7.33;2.03;;;3.40;99.90;;;;;;7776050;28;20919;-87
2023/12/22 11:18:21;;;;;;;5.70;2.77;;;3.20;99.90;;;;;;7777218;28;20199;-87
2023/12/22 11:22:09;;;;;;;5.87;2.73;;;2.90;99.90;;;;;;7779325;28;20266;-87
2023/12/22 11:25:55;;;;;;;2.47;1.20;;;2.70;99.90;;;;;;7771993;28;20184;-88
2023/12/22 11:29:41;;;;;;;13.13;4.63;;;2.60;99.90;;;;;;7752587;28;20180;-88
2023/12/22 11:33:29;;;;;;;4.00;1.10;;;2.70;99.90;;;;;;7771727;28;20215;-88
2023/12/22 11:37:16;;;;;;;2.77;0.60;;;2.60;99.90;;;;;;7778547;28;20187;-86
2023/12/22 11:41:03;;;;;;;3.53;0.90;;;2.60;99.90;;;;;;7801796;28;20270;-85
2023/12/22 11:44:49;;;;;;;5.17;0.97;;;2.60;99.90;;;;;;7794898;28;20289;-85
2023/12/22 11:48:35;;;;;;;7.40;0.97;;;2.70;99.90;;;;;;7777630;28;20175;-85
2023/12/22 11:52:26;;;;;;;6.90;1.27;;;2.70;99.90;;;;;;7776558;28;20214;-86
2023/12/22 11:56:13;;;;;;;6.90;1.37;;;2.80;99.90;;;;;;7776122;28;20233;-86
2023/12/22 12:00:01;;;;;;;11.93;4.20;;;2.80;99.90;;;;;;7778510;28;20168;-87
2023/12/22 12:03:53;;;;;;;14.30;3.90;;;2.80;99.90;;;;;;7779042;28;20211;-87
2023/12/22 12:07:44;;;;;;;11.33;4.73;;;2.80;99.90;;;;;;7777061;28;20186;-86
2023/12/22 12:11:51;;;;;;;9.73;4.17;;;2.80;99.90;;;;;;7784214;28;20213;-87
2023/12/22 12:15:38;;;;;;;8.73;4.00;;;2.90;99.90;;;;;;7769544;28;20207;-86
2023/12/22 12:19:24;;;;;;;14.93;7.57;;;2.90;99.90;;;;;;7777473;28;20262;-86
2023/12/22 12:23:10;;;;;;;8.37;4.00;;;3.00;99.90;;;;;;7778477;28;20689;-86
2023/12/22 12:26:55;;;;;;;7.40;2.73;;;3.00;99.90;;;;;;7775615;28;20573;-86
2023/12/22 12:30:41;;;;;;;9.77;2.70;;;3.00;99.90;;;;;;7778323;28;20237;-87
2023/12/22 12:34:27;;;;;;;10.20;1.57;;;3.10;99.90;;;;;;7776494;28;20751;-86
2023/12/22 12:38:14;;;;;;;9.00;1.37;;;3.20;99.90;;;;;;7776629;28;20823;-87
2023/12/22 12:42:01;;;;;;;12.53;1.57;;;3.20;99.90;;;;;;7778659;28;20228;-86
2023/12/22 12:45:47;;;;;;;8.77;1.40;;;3.20;99.90;;;;;;7776276;28;20245;-85
2023/12/22 12:49:33;;;;;;;5.80;1.83;;;3.30;99.90;;;;;;7777128;28;20255;-86
2023/12/22 12:53:18;;;;;;;11.47;1.90;;;3.50;99.90;;;;;;7777044;28;20218;-86
2023/12/22 12:57:04;;;;;;;8.40;2.03;;;3.30;99.90;;;;;;7774731;28;20187;-87
2023/12/22 13:00:52;;;;;;;9.70;2.37;;;3.30;99.90;;;;;;7775763;28;20191;-86
2023/12/22 13:04:38;;;;;;;8.97;3.93;;;3.30;99.90;;;;;;7774620;28;20265;-86
2023/12/22 13:08:25;;;;;;;9.13;3.70;;;3.20;99.90;;;;;;7776972;28;20171;-86
2023/12/22 13:12:11;;;;;;;13.40;6.10;;;3.10;99.90;;;;;;7776313;28;20168;-87
2023/12/22 13:15:56;;;;;;;22.47;6.87;;;3.00;99.90;;;;;;7764591;28;20227;-86
2023/12/22 13:19:42;;;;;;;12.73;5.43;;;2.90;99.90;;;;;;7769331;28;20191;-86
2023/12/22 13:23:28;;;;;;;6.73;2.37;;;2.90;99.90;;;;;;7775131;28;20696;-86
2023/12/22 13:27:15;;;;;;;17.00;6.03;;;2.70;99.90;;;;;;7775337;28;20209;-87
2023/12/22 13:31:01;;;;;;;9.00;4.20;;;2.50;99.90;;;;;;7776139;28;20258;-87
2023/12/22 13:34:52;;;;;;;9.93;4.77;;;2.40;99.90;;;;;;7776358;28;20218;-86
2023/12/22 13:38:38;;;;;;;11.67;3.53;;;2.40;99.90;;;;;;7777260;28;20250;-86
2023/12/22 13:42:24;;;;;;;6.80;2.33;;;2.40;99.90;;;;;;7804883;28;20195;-87
2023/12/22 13:46:11;;;;;;;3.93;2.20;;;2.30;99.90;;;;;;7813160;28;20163;-88
2023/12/22 13:49:57;;;;;;;4.73;1.70;;;2.30;99.90;;;;;;7796028;28;20233;-87
2023/12/22 13:53:50;;;;;;;4.40;1.40;;;2.20;99.90;;;;;;7773903;28;20234;-87
2023/12/22 13:57:35;;;;;;;9.93;3.27;;;2.20;99.90;;;;;;7774898;28;20180;-88
2023/12/22 14:01:21;;;;;;;2.27;1.20;;;2.10;99.90;;;;;;7786290;28;20178;-86
2023/12/22 14:05:07;;;;;;;2.67;1.60;;;2.20;99.90;;;;;;7804896;28;20215;-88
2023/12/22 14:08:53;;;;;;;2.10;1.10;;;2.10;99.90;;;;;;7806214;28;20599;-88
2023/12/22 14:12:40;;;;;;;2.47;1.10;;;2.10;99.90;;;;;;7785461;28;20243;-87
2023/12/22 14:16:25;;;;;;;2.30;1.33;;;2.10;99.90;;;;;;7772969;28;20651;-87
2023/12/22 14:20:11;;;;;;;2.47;1.13;;;2.20;99.90;;;;;;7769530;28;20183;-87
2023/12/22 14:23:57;;;;;;;1.93;1.30;;;2.30;99.90;;;;;;7780486;28;20222;-86
2023/12/22 14:27:44;;;;;;;3.17;1.10;;;2.30;99.90;;;;;;7773803;28;20263;-87
2023/12/22 14:31:29;;;;;;;3.07;1.20;;;2.30;99.90;;;;;;7773753;28;20607;-86
2023/12/22 14:35:15;;;;;;;3.67;0.93;;;2.30;99.90;;;;;;7772796;28;20253;-86
2023/12/22 14:39:01;;;;;;;1.67;0.80;;;2.30;99.90;;;;;;7774605;28;20636;-87
2023/12/22 14:42:46;;;;;;;3.30;0.90;;;2.40;99.90;;;;;;7750534;28;20220;-86
2023/12/22 14:46:39;;;;;;;2.80;1.00;;;2.40;99.90;;;;;;7770306;28;20191;-86
2023/12/22 14:50:25;;;;;;;2.27;1.40;;;2.30;99.90;;;;;;7761814;28;20282;-87
2023/12/22 14:54:10;;;;;;;2.87;1.97;;;2.30;99.90;;;;;;7748971;28;20199;-87
2023/12/22 14:57:56;;;;;;;7.80;4.27;;;2.20;99.90;;;;;;7778224;28;20203;-86
2023/12/22 15:01:42;;;;;;;4.63;1.87;;;2.20;99.90;;;;;;7778724;28;20186;-87
2023/12/22 15:05:29;;;;;;;3.93;2.03;;;2.20;99.90;;;;;;7779187;28;20207;-87
2023/12/22 15:09:15;;;;;;;3.77;1.80;;;2.20;99.90;;;;;;7778890;28;20175;-87
2023/12/22 15:13:00;;;;;;;3.03;1.37;;;2.20;99.90;;;;;;7779909;28;20274;-87
2023/12/22 15:16:46;;;;;;;2.60;1.50;;;2.20;99.90;;;;;;7777372;28;20233;-86
2023/12/22 15:20:32;;;;;;;2.50;1.30;;;2.10;99.90;;;;;;7778123;28;20187;-87
2023/12/22 15:24:18;;;;;;;2.53;1.43;;;2.10;99.90;;;;;;7777958;28;20882;-88
2023/12/22 15:28:04;;;;;;;3.50;2.17;;;2.10;99.90;;;;;;7778895;28;20183;-86
2023/12/22 15:31:50;;;;;;;2.57;1.60;;;2.10;99.90;;;;;;7777847;28;20668;-86
2023/12/22 15:35:35;;;;;;;2.93;1.67;;;2.00;99.90;;;;;;7776715;28;20218;-86
2023/12/22 15:39:21;;;;;;;4.23;1.53;;;2.10;99.90;;;;;;7777421;28;20796;-86
2023/12/22 15:43:08;;;;;;;6.20;2.00;;;2.10;99.90;;;;;;7777260;28;20281;-86
2023/12/22 15:46:53;;;;;;;4.43;1.90;;;2.20;99.90;;;;;;7776626;28;20252;-86
2023/12/22 15:50:39;;;;;;;3.33;1.50;;;2.20;99.90;;;;;;7777304;28;20183;-86
2023/12/22 15:54:24;;;;;;;3.77;1.80;;;2.30;99.90;;;;;;7776000;28;20199;-86
2023/12/22 15:58:10;;;;;;;6.13;1.77;;;2.30;99.90;;;;;;7777167;28;20191;-86
2023/12/22 16:01:56;;;;;;;7.10;2.40;;;2.30;99.90;;;;;;7776459;28;20190;-86
2023/12/22 16:05:41;;;;;;;9.37;2.20;;;2.30;99.90;;;;;;7775754;28;20241;-86
2023/12/22 16:09:27;;;;;;;4.97;1.90;;;2.20;99.90;;;;;;7774783;28;20183;-86
2023/12/22 16:13:14;;;;;;;6.27;2.07;;;2.20;99.90;;;;;;7746467;28;20283;-86
2023/12/22 16:17:00;;;;;;;5.87;2.00;;;2.20;99.90;;;;;;7746817;28;20172;-87
2023/12/22 16:20:46;;;;;;;3.33;1.60;;;2.20;99.90;;;;;;7746208;28;20184;-86
2023/12/22 16:24:32;;;;;;;5.50;1.70;;;2.30;99.90;;;;;;7744342;28;20208;-86
2023/12/22 16:28:19;;;;;;;3.37;1.30;;;2.20;99.90;;;;;;7747883;28;20255;-87
2023/12/22 16:32:05;;;;;;;4.70;2.13;;;2.20;99.90;;;;;;7746375;28;20180;-87
2023/12/22 16:35:52;;;;;;;5.47;1.97;;;2.20;99.90;;;;;;7745355;28;20188;-86
2023/12/22 16:39:55;;;;;;;4.13;1.37;;;2.20;99.90;;;;;;7746006;28;20168;-87
2023/12/22 16:43:42;;;;;;;2.47;1.17;;;2.20;99.90;;;;;;7769139;28;20211;-87
2023/12/22 16:47:29;;;;;;;2.70;0.90;;;2.30;99.90;;;;;;7774491;28;20179;-86
2023/12/22 16:51:16;;;;;;;2.03;1.10;;;2.20;99.90;;;;;;7778102;28;20176;-86
2023/12/22 16:55:02;;;;;;;2.03;0.87;;;2.20;99.90;;;;;;7792040;28;20226;-86
2023/12/22 16:58:48;;;;;;;2.33;1.03;;;2.10;99.90;;;;;;7775186;28;20218;-86
2023/12/22 17:02:35;;;;;;;1.83;1.40;;;2.10;99.90;;;;;;7772029;28;20218;-87
2023/12/22 17:06:21;;;;;;;3.63;1.60;;;2.00;99.90;;;;;;7774155;28;20178;-85
2023/12/22 17:10:07;;;;;;;4.97;1.80;;;2.00;99.90;;;;;;7775032;28;20207;-86
2023/12/22 17:13:52;;;;;;;1.50;1.10;;;2.00;99.90;;;;;;7773789;28;20258;-86
2023/12/22 17:17:38;;;;;;;4.80;2.00;;;2.00;99.90;;;;;;7775728;28;20175;-86
2023/12/22 17:21:23;;;;;;;2.60;1.20;;;2.00;99.90;;;;;;7774547;28;20237;-86
2023/12/22 17:25:09;;;;;;;1.53;0.83;;;2.00;99.90;;;;;;7773787;28;20214;-87
2023/12/22 17:28:55;;;;;;;1.83;0.83;;;2.00;99.90;;;;;;7774713;28;20668;-87
2023/12/22 17:32:40;;;;;;;1.77;1.50;;;2.00;99.90;;;;;;7774712;28;20207;-86
2023/12/22 17:36:30;;;;;;;3.67;1.80;;;2.00;99.90;;;;;;7773644;28;20176;-85
2023/12/22 17:40:16;;;;;;;5.67;3.00;;;2.00;99.90;;;;;;7774552;28;20176;-86
2023/12/22 17:44:02;;;;;;;9.43;4.10;;;1.90;99.90;;;;;;7773723;28;20214;-85
2023/12/22 17:47:48;;;;;;;4.97;2.70;;;1.80;99.90;;;;;;7774200;28;20171;-86
2023/12/22 17:51:34;;;;;;;11.50;5.50;;;1.80;99.90;;;;;;7773685;28;20743;-88
2023/12/22 17:55:19;;;;;;;10.07;4.43;;;1.80;99.90;;;;;;7773323;28;20203;-87
2023/12/22 17:59:05;;;;;;;10.53;4.40;;;1.80;99.90;;;;;;7775318;28;20183;-87
2023/12/22 18:02:51;;;;;;;6.63;2.03;;;1.70;99.90;;;;;;7775183;28;20242;-87
2023/12/22 18:06:36;;;;;;;0.93;0.67;;;1.60;99.90;;;;;;7773489;28;20183;-88
2023/12/22 18:10:22;;;;;;;1.53;0.90;;;1.60;99.90;;;;;;7775495;28;20178;-87
2023/12/22 18:14:08;;;;;;;2.77;1.60;;;1.50;99.90;;;;;;7794123;28;20233;-86
2023/12/22 18:17:54;;;;;;;1.20;0.70;;;1.50;99.90;;;;;;7777569;28;20266;-89
2023/12/22 18:21:39;;;;;;;6.20;3.37;;;1.60;99.90;;;;;;7780124;28;20187;-88
2023/12/22 18:25:26;;;;;;;4.33;1.93;;;1.50;99.90;;;;;;7780673;28;20203;-89
2023/12/22 18:29:12;;;;;;;2.07;1.57;;;1.50;99.90;;;;;;7782133;28;20244;-89
2023/12/22 18:32:57;;;;;;;4.43;2.03;;;1.50;99.90;;;;;;7780150;28;20219;-90
2023/12/22 18:36:43;;;;;;;3.77;1.80;;;1.40;99.90;;;;;;7781379;28;20640;-89
2023/12/22 18:40:29;;;;;;;3.17;1.40;;;1.40;99.90;;;;;;7780508;28;20202;-90
2023/12/22 18:44:14;;;;;;;1.63;1.00;;;1.40;99.90;;;;;;7780135;28;20211;-90
2023/12/22 18:48:05;;;;;;;3.10;1.53;;;1.30;99.90;;;;;;7780501;28;20207;-90
2023/12/22 18:51:51;;;;;;;6.83;3.40;;;1.40;99.90;;;;;;7781471;28;20182;-90
2023/12/22 18:55:37;;;;;;;3.00;1.67;;;1.40;99.90;;;;;;7780100;28;20227;-90
2023/12/22 18:59:24;;;;;;;5.30;2.33;;;1.30;99.90;;;;;;7780401;28;20184;-91
2023/12/22 19:03:10;;;;;;;4.23;1.70;;;1.30;99.90;;;;;;7764200;28;20716;-91
2023/12/22 19:07:13;;;;;;;4.97;2.80;;;1.20;99.90;;;;;;7785055;28;20525;-91
2023/12/22 19:11:00;;;;;;;0.70;0.50;;;1.20;99.90;;;;;;7780199;28;20191;-91
2023/12/22 19:14:46;;;;;;;1.90;1.07;;;1.30;99.90;;;;;;7779652;28;20330;-91
2023/12/22 19:18:48;;;;;;;2.80;1.60;;;1.20;99.90;;;;;;7780161;28;20234;-91
2023/12/22 19:22:34;;;;;;;4.73;1.63;;;1.20;99.90;;;;;;7779833;28;20207;-91
2023/12/22 19:26:19;;;;;;;5.50;2.37;;;1.20;99.90;;;;;;7779759;28;20263;-91
2023/12/22 19:30:07;;;;;;;7.57;3.10;;;1.10;99.90;;;;;;7780366;28;20179;-91
2023/12/22 19:33:52;;;;;;;1.87;1.67;;;1.20;99.90;;;;;;7779453;28;20306;-91
2023/12/22 19:37:38;;;;;;;2.83;1.40;;;1.10;99.90;;;;;;7779507;28;20179;-91
2023/12/22 19:41:24;;;;;;;1.20;0.80;;;1.20;99.90;;;;;;7780874;28;20206;-92
2023/12/22 19:45:11;;;;;;;2.47;1.00;;;1.20;99.90;;;;;;7778075;28;20207;-93
2023/12/22 19:48:57;;;;;;;2.00;1.50;;;1.20;99.90;;;;;;7774103;28;20183;-91